sensor_id;sensor_type;location;lat;lon;timestamp;temperature;humidity
26745;DHT22;14342;50.960;13.880;2022-08-21T00:00:09;21.10;99.90
26745;DHT22;14342;50.960;13.880;2022-08-21T00:01:13;21.10;99.90
26745;DHT22;14342;50.960;13.880;2022-08-21T00:02:15;21.10;99.90
26745;DHT22;14342;50.960;13.880;2022-08-21T00:03:18;21.10;99.90
26745;DHT22;14342;50.960;13.880;2022-08-21T00:04:18;21.20;99.90
26745;DHT22;14342;50.960;13.880;2022-08-21T00:05:21;21.20;99.90
26745;DHT22;14342;50.960;13.880;2022-08-21T00:06:22;21.10;99.90
26745;DHT22;14342;50.960;13.880;2022-08-21T00:07:24;21.10;99.90
26745;DHT22;14342;50.960;13.880;2022-08-21T00:08:25;21.00;99.90
26745;DHT22;14342;50.960;13.880;2022-08-21T00:09:26;21.00;99.90
26745;DHT22;14342;50.960;13.880;2022-08-21T00:10:27;21.00;99.90
26745;DHT22;14342;50.960;13.880;2022-08-21T00:11:29;21.00;99.90
26745;DHT22;14342;50.960;13.880;2022-08-21T00:12:29;20.90;99.90
26745;DHT22;14342;50.960;13.880;2022-08-21T00:13:32;20.70;99.90
26745;DHT22;14342;50.960;13.880;2022-08-21T00:14:33;20.70;99.90
26745;DHT22;14342;50.960;13.880;2022-08-21T00:15:35;20.60;99.90
26745;DHT22;14342;50.960;13.880;2022-08-21T00:16:36;20.60;99.90
26745;DHT22;14342;50.960;13.880;2022-08-21T00:17:47;20.50;99.90
26745;DHT22;14342;50.960;13.880;2022-08-21T00:18:50;20.40;99.90
26745;DHT22;14342;50.960;13.880;2022-08-21T00:19:51;20.30;99.90
26745;DHT22;14342;50.960;13.880;2022-08-21T00:20:52;20.20;99.90
26745;DHT22;14342;50.960;13.880;2022-08-21T00:21:54;20.20;99.90
26745;DHT22;14342;50.960;13.880;2022-08-21T00:22:55;20.00;99.90
26745;DHT22;14342;50.960;13.880;2022-08-21T00:23:56;20.00;99.90
26745;DHT22;14342;50.960;13.880;2022-08-21T00:24:57;20.00;99.90
26745;DHT22;14342;50.960;13.880;2022-08-21T00:25:58;20.00;99.90
26745;DHT22;14342;50.960;13.880;2022-08-21T00:26:59;20.00;99.90
26745;DHT22;14342;50.960;13.880;2022-08-21T00:28:00;20.10;99.90
26745;DHT22;14342;50.960;13.880;2022-08-21T00:29:02;20.40;99.90
26745;DHT22;14342;50.960;13.880;2022-08-21T00:30:05;20.20;99.90
26745;DHT22;14342;50.960;13.880;2022-08-21T00:31:06;20.20;99.90
26745;DHT22;14342;50.960;13.880;2022-08-21T00:32:07;20.60;99.90
26745;DHT22;14342;50.960;13.880;2022-08-21T00:33:08;20.40;99.90
26745;DHT22;14342;50.960;13.880;2022-08-21T00:34:12;20.40;99.90
26745;DHT22;14342;50.960;13.880;2022-08-21T00:35:14;20.40;99.90
26745;DHT22;14342;50.960;13.880;2022-08-21T00:36:15;20.50;99.90
26745;DHT22;14342;50.960;13.880;2022-08-21T00:37:16;20.50;99.90
26745;DHT22;14342;50.960;13.880;2022-08-21T00:38:18;20.40;99.90
26745;DHT22;14342;50.960;13.880;2022-08-21T00:39:18;20.40;99.90
26745;DHT22;14342;50.960;13.880;2022-08-21T00:40:21;20.40;99.90
26745;DHT22;14342;50.960;13.880;2022-08-21T00:41:22;20.40;99.90
26745;DHT22;14342;50.960;13.880;2022-08-21T00:42:24;20.40;99.90
26745;DHT22;14342;50.960;13.880;2022-08-21T00:43:25;20.30;99.90
26745;DHT22;14342;50.960;13.880;2022-08-21T00:44:28;20.20;99.90
26745;DHT22;14342;50.960;13.880;2022-08-21T00:45:28;20.30;99.90
26745;DHT22;14342;50.960;13.880;2022-08-21T00:46:30;20.00;99.90
26745;DHT22;14342;50.960;13.880;2022-08-21T00:47:31;19.90;99.90
26745;DHT22;14342;50.960;13.880;2022-08-21T00:48:32;19.70;99.90
26745;DHT22;14342;50.960;13.880;2022-08-21T00:49:34;19.70;99.90
26745;DHT22;14342;50.960;13.880;2022-08-21T00:50:38;19.80;99.90
26745;DHT22;14342;50.960;13.880;2022-08-21T00:51:41;19.80;99.90
26745;DHT22;14342;50.960;13.880;2022-08-21T00:52:43;19.70;99.90
26745;DHT22;14342;50.960;13.880;2022-08-21T00:53:45;19.70;99.90
26745;DHT22;14342;50.960;13.880;2022-08-21T00:54:47;19.70;99.90
26745;DHT22;14342;50.960;13.880;2022-08-21T00:55:49;19.70;99.90
26745;DHT22;14342;50.960;13.880;2022-08-21T00:56:51;19.60;99.90
26745;DHT22;14342;50.960;13.880;2022-08-21T00:57:54;19.50;99.90
26745;DHT22;14342;50.960;13.880;2022-08-21T00:58:56;19.40;99.90
26745;DHT22;14342;50.960;13.880;2022-08-21T00:59:58;19.50;99.90
26745;DHT22;14342;50.960;13.880;2022-08-21T01:01:01;19.50;99.90
26745;DHT22;14342;50.960;13.880;2022-08-21T01:02:03;19.60;99.90
26745;DHT22;14342;50.960;13.880;2022-08-21T01:03:05;19.40;99.90
26745;DHT22;14342;50.960;13.880;2022-08-21T01:04:06;19.40;99.90
26745;DHT22;14342;50.960;13.880;2022-08-21T01:05:09;19.60;99.90
26745;DHT22;14342;50.960;13.880;2022-08-21T01:06:10;19.40;99.90
26745;DHT22;14342;50.960;13.880;2022-08-21T01:07:12;19.30;99.90
26745;DHT22;14342;50.960;13.880;2022-08-21T01:08:13;19.30;99.90
26745;DHT22;14342;50.960;13.880;2022-08-21T01:09:16;19.30;99.90
26745;DHT22;14342;50.960;13.880;2022-08-21T01:10:18;19.40;99.90
26745;DHT22;14342;50.960;13.880;2022-08-21T01:11:20;19.30;99.90
26745;DHT22;14342;50.960;13.880;2022-08-21T01:12:20;19.20;99.90
26745;DHT22;14342;50.960;13.880;2022-08-21T01:13:23;19.20;99.90
26745;DHT22;14342;50.960;13.880;2022-08-21T01:14:24;19.20;99.90
26745;DHT22;14342;50.960;13.880;2022-08-21T01:15:26;19.20;99.90
26745;DHT22;14342;50.960;13.880;2022-08-21T01:16:28;19.20;99.90
26745;DHT22;14342;50.960;13.880;2022-08-21T01:17:30;19.10;99.90
26745;DHT22;14342;50.960;13.880;2022-08-21T01:18:31;19.10;99.90
26745;DHT22;14342;50.960;13.880;2022-08-21T01:19:32;19.10;99.90
26745;DHT22;14342;50.960;13.880;2022-08-21T01:20:35;19.00;99.90
26745;DHT22;14342;50.960;13.880;2022-08-21T01:21:39;19.00;99.90
26745;DHT22;14342;50.960;13.880;2022-08-21T01:22:39;18.90;99.90
26745;DHT22;14342;50.960;13.880;2022-08-21T01:23:41;18.90;99.90
26745;DHT22;14342;50.960;13.880;2022-08-21T01:24:43;18.80;99.90
26745;DHT22;14342;50.960;13.880;2022-08-21T01:25:44;18.80;99.90
26745;DHT22;14342;50.960;13.880;2022-08-21T01:26:45;18.70;99.90
26745;DHT22;14342;50.960;13.880;2022-08-21T01:27:46;18.70;99.90
26745;DHT22;14342;50.960;13.880;2022-08-21T01:28:49;18.60;99.90
26745;DHT22;14342;50.960;13.880;2022-08-21T01:29:53;18.60;99.90
26745;DHT22;14342;50.960;13.880;2022-08-21T01:30:55;18.60;99.90
26745;DHT22;14342;50.960;13.880;2022-08-21T01:31:57;18.50;99.90
26745;DHT22;14342;50.960;13.880;2022-08-21T01:32:57;18.50;99.90
26745;DHT22;14342;50.960;13.880;2022-08-21T01:33:59;18.50;99.90
26745;DHT22;14342;50.960;13.880;2022-08-21T01:35:00;18.40;99.90
26745;DHT22;14342;50.960;13.880;2022-08-21T01:36:02;18.40;99.90
26745;DHT22;14342;50.960;13.880;2022-08-21T01:37:04;18.30;99.90
26745;DHT22;14342;50.960;13.880;2022-08-21T01:38:06;18.50;99.90
26745;DHT22;14342;50.960;13.880;2022-08-21T01:39:06;18.30;99.90
26745;DHT22;14342;50.960;13.880;2022-08-21T01:40:09;18.30;99.90
26745;DHT22;14342;50.960;13.880;2022-08-21T01:41:10;18.30;99.90
26745;DHT22;14342;50.960;13.880;2022-08-21T01:42:12;18.30;99.90
26745;DHT22;14342;50.960;13.880;2022-08-21T01:43:13;18.30;99.90
26745;DHT22;14342;50.960;13.880;2022-08-21T01:44:15;18.30;99.90
26745;DHT22;14342;50.960;13.880;2022-08-21T01:45:15;18.30;99.90
26745;DHT22;14342;50.960;13.880;2022-08-21T01:46:17;18.30;99.90
26745;DHT22;14342;50.960;13.880;2022-08-21T01:47:17;18.20;99.90
26745;DHT22;14342;50.960;13.880;2022-08-21T01:48:19;18.20;99.90
26745;DHT22;14342;50.960;13.880;2022-08-21T01:49:20;18.20;99.90
26745;DHT22;14342;50.960;13.880;2022-08-21T01:50:22;18.20;99.90
26745;DHT22;14342;50.960;13.880;2022-08-21T01:51:23;18.10;99.90
26745;DHT22;14342;50.960;13.880;2022-08-21T01:52:26;18.10;99.90
26745;DHT22;14342;50.960;13.880;2022-08-21T01:53:26;18.10;99.90
26745;DHT22;14342;50.960;13.880;2022-08-21T01:54:28;18.10;99.90
26745;DHT22;14342;50.960;13.880;2022-08-21T01:55:29;18.10;99.90
26745;DHT22;14342;50.960;13.880;2022-08-21T01:56:35;18.10;99.90
26745;DHT22;14342;50.960;13.880;2022-08-21T01:57:36;18.00;99.90
26745;DHT22;14342;50.960;13.880;2022-08-21T01:58:38;18.10;99.90
26745;DHT22;14342;50.960;13.880;2022-08-21T01:59:39;18.00;99.90
26745;DHT22;14342;50.960;13.880;2022-08-21T02:00:40;18.00;99.90
26745;DHT22;14342;50.960;13.880;2022-08-21T02:01:42;18.00;99.90
26745;DHT22;14342;50.960;13.880;2022-08-21T02:02:43;17.90;99.90
26745;DHT22;14342;50.960;13.880;2022-08-21T02:03:44;17.90;99.90
26745;DHT22;14342;50.960;13.880;2022-08-21T02:04:45;17.90;99.90
26745;DHT22;14342;50.960;13.880;2022-08-21T02:05:47;17.90;99.90
26745;DHT22;14342;50.960;13.880;2022-08-21T02:06:47;17.90;99.90
26745;DHT22;14342;50.960;13.880;2022-08-21T02:07:51;17.90;99.90
26745;DHT22;14342;50.960;13.880;2022-08-21T02:08:51;17.90;99.90
26745;DHT22;14342;50.960;13.880;2022-08-21T02:09:53;17.90;99.90
26745;DHT22;14342;50.960;13.880;2022-08-21T02:10:54;18.00;99.90
26745;DHT22;14342;50.960;13.880;2022-08-21T02:11:55;18.00;99.90
26745;DHT22;14342;50.960;13.880;2022-08-21T02:12:57;18.00;99.90
26745;DHT22;14342;50.960;13.880;2022-08-21T02:14:00;18.00;99.90
26745;DHT22;14342;50.960;13.880;2022-08-21T02:15:00;17.60;99.90
26745;DHT22;14342;50.960;13.880;2022-08-21T02:16:02;17.90;99.90
26745;DHT22;14342;50.960;13.880;2022-08-21T02:17:03;18.00;99.90
26745;DHT22;14342;50.960;13.880;2022-08-21T02:18:06;18.00;99.90
26745;DHT22;14342;50.960;13.880;2022-08-21T02:19:07;18.00;99.90
26745;DHT22;14342;50.960;13.880;2022-08-21T02:20:09;18.00;99.90
26745;DHT22;14342;50.960;13.880;2022-08-21T02:21:11;18.10;99.90
26745;DHT22;14342;50.960;13.880;2022-08-21T02:22:11;18.10;99.90
26745;DHT22;14342;50.960;13.880;2022-08-21T02:23:14;18.10;99.90
26745;DHT22;14342;50.960;13.880;2022-08-21T02:24:15;18.10;99.90
26745;DHT22;14342;50.960;13.880;2022-08-21T02:25:17;18.10;99.90
26745;DHT22;14342;50.960;13.880;2022-08-21T02:26:18;18.10;99.90
26745;DHT22;14342;50.960;13.880;2022-08-21T02:27:20;18.30;99.90
26745;DHT22;14342;50.960;13.880;2022-08-21T02:28:20;18.10;99.90
26745;DHT22;14342;50.960;13.880;2022-08-21T02:29:22;18.10;99.90
26745;DHT22;14342;50.960;13.880;2022-08-21T02:30:26;18.00;99.90
26745;DHT22;14342;50.960;13.880;2022-08-21T02:31:28;18.00;99.90
26745;DHT22;14342;50.960;13.880;2022-08-21T02:32:29;18.00;99.90
26745;DHT22;14342;50.960;13.880;2022-08-21T02:33:31;18.10;99.90
26745;DHT22;14342;50.960;13.880;2022-08-21T02:34:31;18.10;99.90
26745;DHT22;14342;50.960;13.880;2022-08-21T02:35:33;18.10;99.90
26745;DHT22;14342;50.960;13.880;2022-08-21T02:36:34;18.20;99.90
26745;DHT22;14342;50.960;13.880;2022-08-21T02:37:42;18.30;99.90
26745;DHT22;14342;50.960;13.880;2022-08-21T02:38:44;18.30;99.90
26745;DHT22;14342;50.960;13.880;2022-08-21T02:39:46;18.30;99.90
26745;DHT22;14342;50.960;13.880;2022-08-21T02:40:47;18.20;99.90
26745;DHT22;14342;50.960;13.880;2022-08-21T02:41:49;18.40;99.90
26745;DHT22;14342;50.960;13.880;2022-08-21T02:42:50;18.40;99.90
26745;DHT22;14342;50.960;13.880;2022-08-21T02:43:51;18.50;99.90
26745;DHT22;14342;50.960;13.880;2022-08-21T02:44:52;18.60;99.90
26745;DHT22;14342;50.960;13.880;2022-08-21T02:45:54;18.80;99.90
26745;DHT22;14342;50.960;13.880;2022-08-21T02:46:55;18.80;99.90
26745;DHT22;14342;50.960;13.880;2022-08-21T02:47:58;19.00;99.90
26745;DHT22;14342;50.960;13.880;2022-08-21T02:48:59;19.10;99.90
26745;DHT22;14342;50.960;13.880;2022-08-21T02:50:00;19.10;99.90
26745;DHT22;14342;50.960;13.880;2022-08-21T02:51:03;19.20;99.90
26745;DHT22;14342;50.960;13.880;2022-08-21T02:52:04;19.30;99.90
26745;DHT22;14342;50.960;13.880;2022-08-21T02:53:06;19.40;99.90
26745;DHT22;14342;50.960;13.880;2022-08-21T02:54:09;19.50;99.90
26745;DHT22;14342;50.960;13.880;2022-08-21T02:55:10;19.60;99.90
26745;DHT22;14342;50.960;13.880;2022-08-21T02:56:13;19.60;99.90
26745;DHT22;14342;50.960;13.880;2022-08-21T02:57:14;19.70;99.90
26745;DHT22;14342;50.960;13.880;2022-08-21T02:58:22;19.80;99.90
26745;DHT22;14342;50.960;13.880;2022-08-21T02:59:23;19.80;99.90
26745;DHT22;14342;50.960;13.880;2022-08-21T03:00:26;19.90;99.90
26745;DHT22;14342;50.960;13.880;2022-08-21T03:01:27;19.90;99.90
26745;DHT22;14342;50.960;13.880;2022-08-21T03:02:29;19.90;99.90
26745;DHT22;14342;50.960;13.880;2022-08-21T03:03:29;20.10;99.90
26745;DHT22;14342;50.960;13.880;2022-08-21T03:04:31;19.80;99.90
26745;DHT22;14342;50.960;13.880;2022-08-21T03:05:34;19.90;99.90
26745;DHT22;14342;50.960;13.880;2022-08-21T03:06:37;19.80;99.90
26745;DHT22;14342;50.960;13.880;2022-08-21T03:07:38;19.90;99.90
26745;DHT22;14342;50.960;13.880;2022-08-21T03:08:40;19.90;99.90
26745;DHT22;14342;50.960;13.880;2022-08-21T03:09:42;20.00;99.90
26745;DHT22;14342;50.960;13.880;2022-08-21T03:10:45;20.10;99.90
26745;DHT22;14342;50.960;13.880;2022-08-21T03:11:46;20.10;99.90
26745;DHT22;14342;50.960;13.880;2022-08-21T03:12:48;20.10;99.90
26745;DHT22;14342;50.960;13.880;2022-08-21T03:13:49;20.10;99.90
26745;DHT22;14342;50.960;13.880;2022-08-21T03:14:50;20.20;99.90
26745;DHT22;14342;50.960;13.880;2022-08-21T03:15:51;20.20;99.90
26745;DHT22;14342;50.960;13.880;2022-08-21T03:16:52;20.20;99.90
26745;DHT22;14342;50.960;13.880;2022-08-21T03:17:53;20.30;99.90
26745;DHT22;14342;50.960;13.880;2022-08-21T03:18:55;20.30;99.90
26745;DHT22;14342;50.960;13.880;2022-08-21T03:19:56;20.40;99.90
26745;DHT22;14342;50.960;13.880;2022-08-21T03:20:58;20.40;99.90
26745;DHT22;14342;50.960;13.880;2022-08-21T03:21:58;20.40;99.90
26745;DHT22;14342;50.960;13.880;2022-08-21T03:23:00;20.40;99.90
26745;DHT22;14342;50.960;13.880;2022-08-21T03:24:01;20.40;99.90
26745;DHT22;14342;50.960;13.880;2022-08-21T03:25:04;20.40;99.90
26745;DHT22;14342;50.960;13.880;2022-08-21T03:26:05;20.40;99.90
26745;DHT22;14342;50.960;13.880;2022-08-21T03:27:07;20.40;99.90
26745;DHT22;14342;50.960;13.880;2022-08-21T03:28:09;20.40;99.90
26745;DHT22;14342;50.960;13.880;2022-08-21T03:29:11;20.50;99.90
26745;DHT22;14342;50.960;13.880;2022-08-21T03:30:12;20.50;99.90
26745;DHT22;14342;50.960;13.880;2022-08-21T03:31:13;20.40;99.90
26745;DHT22;14342;50.960;13.880;2022-08-21T03:32:14;20.50;99.90
26745;DHT22;14342;50.960;13.880;2022-08-21T03:33:15;20.50;99.90
26745;DHT22;14342;50.960;13.880;2022-08-21T03:34:16;20.50;99.90
26745;DHT22;14342;50.960;13.880;2022-08-21T03:35:18;20.50;99.90
26745;DHT22;14342;50.960;13.880;2022-08-21T03:36:19;20.50;99.90
26745;DHT22;14342;50.960;13.880;2022-08-21T03:37:20;20.50;99.90
26745;DHT22;14342;50.960;13.880;2022-08-21T03:38:21;20.50;99.90
26745;DHT22;14342;50.960;13.880;2022-08-21T03:39:23;20.50;99.90
26745;DHT22;14342;50.960;13.880;2022-08-21T03:40:25;20.50;99.90
26745;DHT22;14342;50.960;13.880;2022-08-21T03:41:26;20.50;99.90
26745;DHT22;14342;50.960;13.880;2022-08-21T03:42:28;20.50;99.90
26745;DHT22;14342;50.960;13.880;2022-08-21T03:43:29;20.50;99.90
26745;DHT22;14342;50.960;13.880;2022-08-21T03:44:30;20.50;99.90
26745;DHT22;14342;50.960;13.880;2022-08-21T03:45:31;20.50;99.90
26745;DHT22;14342;50.960;13.880;2022-08-21T03:46:33;20.60;99.90
26745;DHT22;14342;50.960;13.880;2022-08-21T03:47:34;20.60;99.90
26745;DHT22;14342;50.960;13.880;2022-08-21T03:48:36;20.60;99.90
26745;DHT22;14342;50.960;13.880;2022-08-21T03:49:36;20.60;99.90
26745;DHT22;14342;50.960;13.880;2022-08-21T03:50:40;20.60;99.90
26745;DHT22;14342;50.960;13.880;2022-08-21T03:51:41;20.50;99.90
26745;DHT22;14342;50.960;13.880;2022-08-21T03:52:43;20.50;99.90
26745;DHT22;14342;50.960;13.880;2022-08-21T03:53:43;20.50;99.90
26745;DHT22;14342;50.960;13.880;2022-08-21T03:54:45;20.50;99.90
26745;DHT22;14342;50.960;13.880;2022-08-21T03:55:48;20.50;99.90
26745;DHT22;14342;50.960;13.880;2022-08-21T03:56:51;20.50;99.90
26745;DHT22;14342;50.960;13.880;2022-08-21T03:57:52;20.40;99.90
26745;DHT22;14342;50.960;13.880;2022-08-21T03:58:54;20.40;99.90
26745;DHT22;14342;50.960;13.880;2022-08-21T03:59:54;20.20;99.90
26745;DHT22;14342;50.960;13.880;2022-08-21T04:00:57;19.90;99.90
26745;DHT22;14342;50.960;13.880;2022-08-21T04:01:59;19.70;99.90
26745;DHT22;14342;50.960;13.880;2022-08-21T04:03:01;19.60;99.90
26745;DHT22;14342;50.960;13.880;2022-08-21T04:04:02;19.30;99.90
26745;DHT22;14342;50.960;13.880;2022-08-21T04:05:04;19.20;99.90
26745;DHT22;14342;50.960;13.880;2022-08-21T04:06:06;19.10;99.90
26745;DHT22;14342;50.960;13.880;2022-08-21T04:07:07;19.00;99.90
26745;DHT22;14342;50.960;13.880;2022-08-21T04:08:08;18.80;99.90
26745;DHT22;14342;50.960;13.880;2022-08-21T04:09:09;18.70;99.90
26745;DHT22;14342;50.960;13.880;2022-08-21T04:10:10;18.60;99.90
26745;DHT22;14342;50.960;13.880;2022-08-21T04:11:13;18.50;99.90
26745;DHT22;14342;50.960;13.880;2022-08-21T04:12:15;18.10;99.90
26745;DHT22;14342;50.960;13.880;2022-08-21T04:13:15;18.40;99.90
26745;DHT22;14342;50.960;13.880;2022-08-21T04:14:17;18.40;99.90
26745;DHT22;14342;50.960;13.880;2022-08-21T04:15:18;18.60;99.90
26745;DHT22;14342;50.960;13.880;2022-08-21T04:16:20;18.70;99.90
26745;DHT22;14342;50.960;13.880;2022-08-21T04:17:20;18.80;99.90
26745;DHT22;14342;50.960;13.880;2022-08-21T04:18:22;18.90;99.90
26745;DHT22;14342;50.960;13.880;2022-08-21T04:19:23;19.00;99.90
26745;DHT22;14342;50.960;13.880;2022-08-21T04:20:24;19.20;99.90
26745;DHT22;14342;50.960;13.880;2022-08-21T04:21:25;19.30;99.90
26745;DHT22;14342;50.960;13.880;2022-08-21T04:22:27;19.40;99.90
26745;DHT22;14342;50.960;13.880;2022-08-21T04:23:27;19.50;99.90
26745;DHT22;14342;50.960;13.880;2022-08-21T04:24:29;19.60;99.90
26745;DHT22;14342;50.960;13.880;2022-08-21T04:25:30;19.60;99.90
26745;DHT22;14342;50.960;13.880;2022-08-21T04:26:33;19.60;99.90
26745;DHT22;14342;50.960;13.880;2022-08-21T04:27:34;19.70;99.90
26745;DHT22;14342;50.960;13.880;2022-08-21T04:28:36;19.70;99.90
26745;DHT22;14342;50.960;13.880;2022-08-21T04:29:36;19.70;99.90
26745;DHT22;14342;50.960;13.880;2022-08-21T04:30:38;19.70;99.90
26745;DHT22;14342;50.960;13.880;2022-08-21T04:31:39;19.80;99.90
26745;DHT22;14342;50.960;13.880;2022-08-21T04:32:42;19.80;99.90
26745;DHT22;14342;50.960;13.880;2022-08-21T04:33:43;19.80;99.90
26745;DHT22;14342;50.960;13.880;2022-08-21T04:34:45;19.80;99.90
26745;DHT22;14342;50.960;13.880;2022-08-21T04:35:45;19.90;99.90
26745;DHT22;14342;50.960;13.880;2022-08-21T04:36:47;20.00;99.90
26745;DHT22;14342;50.960;13.880;2022-08-21T04:37:48;20.00;99.90
26745;DHT22;14342;50.960;13.880;2022-08-21T04:38:50;20.20;99.90
26745;DHT22;14342;50.960;13.880;2022-08-21T04:39:50;20.10;99.90
26745;DHT22;14342;50.960;13.880;2022-08-21T04:40:52;20.10;99.90
26745;DHT22;14342;50.960;13.880;2022-08-21T04:41:54;20.10;99.90
26745;DHT22;14342;50.960;13.880;2022-08-21T04:42:57;20.10;99.90
26745;DHT22;14342;50.960;13.880;2022-08-21T04:44:00;20.20;99.90
26745;DHT22;14342;50.960;13.880;2022-08-21T04:45:02;20.20;99.90
26745;DHT22;14342;50.960;13.880;2022-08-21T04:46:02;20.20;99.90
26745;DHT22;14342;50.960;13.880;2022-08-21T04:47:04;20.20;99.90
26745;DHT22;14342;50.960;13.880;2022-08-21T04:48:06;20.20;99.90
26745;DHT22;14342;50.960;13.880;2022-08-21T04:49:09;20.30;99.90
26745;DHT22;14342;50.960;13.880;2022-08-21T04:50:10;20.30;99.90
26745;DHT22;14342;50.960;13.880;2022-08-21T04:51:13;20.30;99.90
26745;DHT22;14342;50.960;13.880;2022-08-21T04:52:17;20.40;99.90
26745;DHT22;14342;50.960;13.880;2022-08-21T04:53:20;20.40;99.90
26745;DHT22;14342;50.960;13.880;2022-08-21T04:54:23;20.40;99.90
26745;DHT22;14342;50.960;13.880;2022-08-21T04:55:24;20.40;99.90
26745;DHT22;14342;50.960;13.880;2022-08-21T04:56:28;20.40;99.90
26745;DHT22;14342;50.960;13.880;2022-08-21T04:57:31;20.40;99.90
26745;DHT22;14342;50.960;13.880;2022-08-21T04:58:32;20.30;99.90
26745;DHT22;14342;50.960;13.880;2022-08-21T04:59:35;20.30;99.90
26745;DHT22;14342;50.960;13.880;2022-08-21T05:00:37;20.30;99.90
26745;DHT22;14342;50.960;13.880;2022-08-21T05:01:39;20.30;99.90
26745;DHT22;14342;50.960;13.880;2022-08-21T05:02:42;20.30;99.90
26745;DHT22;14342;50.960;13.880;2022-08-21T05:03:42;20.30;99.90
26745;DHT22;14342;50.960;13.880;2022-08-21T05:04:45;20.20;99.90
26745;DHT22;14342;50.960;13.880;2022-08-21T05:05:47;20.20;99.90
26745;DHT22;14342;50.960;13.880;2022-08-21T05:06:49;20.20;99.90
26745;DHT22;14342;50.960;13.880;2022-08-21T05:07:51;20.10;99.90
26745;DHT22;14342;50.960;13.880;2022-08-21T05:08:54;20.20;99.90
26745;DHT22;14342;50.960;13.880;2022-08-21T05:09:55;20.20;99.90
26745;DHT22;14342;50.960;13.880;2022-08-21T05:10:57;20.20;99.90
26745;DHT22;14342;50.960;13.880;2022-08-21T05:11:58;20.20;99.90
26745;DHT22;14342;50.960;13.880;2022-08-21T05:13:03;20.20;99.90
26745;DHT22;14342;50.960;13.880;2022-08-21T05:14:05;20.20;99.90
26745;DHT22;14342;50.960;13.880;2022-08-21T05:15:06;20.30;99.90
26745;DHT22;14342;50.960;13.880;2022-08-21T05:16:07;20.30;99.90
26745;DHT22;14342;50.960;13.880;2022-08-21T05:17:09;20.30;99.90
26745;DHT22;14342;50.960;13.880;2022-08-21T05:18:10;20.30;99.90
26745;DHT22;14342;50.960;13.880;2022-08-21T05:19:12;20.30;99.90
26745;DHT22;14342;50.960;13.880;2022-08-21T05:20:13;20.30;99.90
26745;DHT22;14342;50.960;13.880;2022-08-21T05:21:14;20.40;99.90
26745;DHT22;14342;50.960;13.880;2022-08-21T05:22:18;20.40;99.90
26745;DHT22;14342;50.960;13.880;2022-08-21T05:23:20;20.40;99.90
26745;DHT22;14342;50.960;13.880;2022-08-21T05:24:21;20.40;99.90
26745;DHT22;14342;50.960;13.880;2022-08-21T05:25:23;20.40;99.90
26745;DHT22;14342;50.960;13.880;2022-08-21T05:26:23;20.40;99.90
26745;DHT22;14342;50.960;13.880;2022-08-21T05:27:25;20.50;99.90
26745;DHT22;14342;50.960;13.880;2022-08-21T05:28:27;20.50;99.90
26745;DHT22;14342;50.960;13.880;2022-08-21T05:29:29;20.40;99.90
26745;DHT22;14342;50.960;13.880;2022-08-21T05:30:30;20.40;99.90
26745;DHT22;14342;50.960;13.880;2022-08-21T05:31:31;20.40;99.90
26745;DHT22;14342;50.960;13.880;2022-08-21T05:32:32;20.40;99.90
26745;DHT22;14342;50.960;13.880;2022-08-21T05:33:34;20.40;99.90
26745;DHT22;14342;50.960;13.880;2022-08-21T05:34:34;20.40;99.90
26745;DHT22;14342;50.960;13.880;2022-08-21T05:35:36;20.40;99.90
26745;DHT22;14342;50.960;13.880;2022-08-21T05:36:37;20.40;99.90
26745;DHT22;14342;50.960;13.880;2022-08-21T05:37:39;20.40;99.90
26745;DHT22;14342;50.960;13.880;2022-08-21T05:38:40;20.40;99.90
26745;DHT22;14342;50.960;13.880;2022-08-21T05:39:41;20.50;99.90
26745;DHT22;14342;50.960;13.880;2022-08-21T05:40:42;20.50;99.90
26745;DHT22;14342;50.960;13.880;2022-08-21T05:41:44;20.50;99.90
26745;DHT22;14342;50.960;13.880;2022-08-21T05:42:45;20.50;99.90
26745;DHT22;14342;50.960;13.880;2022-08-21T05:43:48;20.50;99.90
26745;DHT22;14342;50.960;13.880;2022-08-21T05:44:49;20.60;99.90
26745;DHT22;14342;50.960;13.880;2022-08-21T05:45:51;20.60;99.90
26745;DHT22;14342;50.960;13.880;2022-08-21T05:46:51;20.60;99.90
26745;DHT22;14342;50.960;13.880;2022-08-21T05:47:53;20.70;99.90
26745;DHT22;14342;50.960;13.880;2022-08-21T05:48:54;20.70;99.90
26745;DHT22;14342;50.960;13.880;2022-08-21T05:49:56;20.70;99.90
26745;DHT22;14342;50.960;13.880;2022-08-21T05:50:56;20.70;99.90
26745;DHT22;14342;50.960;13.880;2022-08-21T05:51:58;20.60;99.90
26745;DHT22;14342;50.960;13.880;2022-08-21T05:52:58;20.60;99.90
26745;DHT22;14342;50.960;13.880;2022-08-21T05:54:00;20.60;99.90
26745;DHT22;14342;50.960;13.880;2022-08-21T05:55:01;20.70;99.90
26745;DHT22;14342;50.960;13.880;2022-08-21T05:56:03;20.70;99.90
26745;DHT22;14342;50.960;13.880;2022-08-21T05:57:04;20.60;99.90
26745;DHT22;14342;50.960;13.880;2022-08-21T05:58:05;20.70;99.90
26745;DHT22;14342;50.960;13.880;2022-08-21T05:59:07;20.70;99.90
26745;DHT22;14342;50.960;13.880;2022-08-21T06:00:09;20.70;99.90
26745;DHT22;14342;50.960;13.880;2022-08-21T06:01:11;20.70;99.90
26745;DHT22;14342;50.960;13.880;2022-08-21T06:02:16;20.70;99.90
26745;DHT22;14342;50.960;13.880;2022-08-21T06:03:18;20.60;99.90
26745;DHT22;14342;50.960;13.880;2022-08-21T06:04:20;20.60;99.90
26745;DHT22;14342;50.960;13.880;2022-08-21T06:05:21;20.60;99.90
26745;DHT22;14342;50.960;13.880;2022-08-21T06:06:23;20.60;99.90
26745;DHT22;14342;50.960;13.880;2022-08-21T06:07:23;20.50;99.90
26745;DHT22;14342;50.960;13.880;2022-08-21T06:08:25;20.50;99.90
26745;DHT22;14342;50.960;13.880;2022-08-21T06:09:26;20.60;99.90
26745;DHT22;14342;50.960;13.880;2022-08-21T06:10:27;20.60;99.90
26745;DHT22;14342;50.960;13.880;2022-08-21T06:11:28;20.70;99.90
26745;DHT22;14342;50.960;13.880;2022-08-21T06:12:29;20.70;99.90
26745;DHT22;14342;50.960;13.880;2022-08-21T06:13:30;20.80;99.90
26745;DHT22;14342;50.960;13.880;2022-08-21T06:14:33;20.60;99.90
26745;DHT22;14342;50.960;13.880;2022-08-21T06:15:34;20.50;99.90
26745;DHT22;14342;50.960;13.880;2022-08-21T06:16:35;20.30;99.90
26745;DHT22;14342;50.960;13.880;2022-08-21T06:17:37;20.10;99.90
26745;DHT22;14342;50.960;13.880;2022-08-21T06:18:38;20.00;99.90
26745;DHT22;14342;50.960;13.880;2022-08-21T06:19:40;19.80;99.90
26745;DHT22;14342;50.960;13.880;2022-08-21T06:20:41;19.80;99.90
26745;DHT22;14342;50.960;13.880;2022-08-21T06:21:43;19.70;99.90
26745;DHT22;14342;50.960;13.880;2022-08-21T06:22:43;19.60;99.90